RJFF(METAR)
05/24 13:30
METAR RJFF 240430Z 29012KT 240V320 CAVOK 31/07 Q1013 NOSIG RMK
A2993=
戻る
トップページへ戻る
IMOC Co,.Ltd.